Time;durP1;ratioP1;P1;durP2;ratioP2;P2;SDS_P1;SDS_P2;PMS_P1;PMS_P2;Temp;Humidity;BMP_temperature;BMP_pressure;BME280_temperature;BME280_humidity;BME280_pressure;Samples;Min_cycle;Max_cycle;Signal;HPM_P1;HPM_P2
2023/05/19 00:00:59;;;;;;;7.50;2.13;;;8.00;99.90;;;6.51;100.00;98305.69;5025107;28;20052;-70
2023/05/19 00:03:27;;;;;;;9.60;2.63;;;7.90;99.90;;;6.55;100.00;98306.50;5025432;28;20046;-71
2023/05/19 00:05:55;;;;;;;8.98;2.15;;;7.90;99.90;;;6.61;100.00;98306.41;5020988;28;20079;-71
2023/05/19 00:08:23;;;;;;;10.88;2.05;;;7.90;99.90;;;6.59;100.00;98315.88;5003341;28;20053;-71
2023/05/19 00:10:51;;;;;;;9.00;2.00;;;7.90;99.90;;;6.66;100.00;98308.06;5018383;28;20045;-70
2023/05/19 00:13:18;;;;;;;7.03;2.08;;;7.90;99.90;;;6.59;100.00;98300.41;5012923;28;20521;-70
2023/05/19 00:15:46;;;;;;;8.93;2.40;;;7.90;99.90;;;6.58;100.00;98298.72;5025761;28;20045;-71
2023/05/19 00:18:15;;;;;;;6.75;2.08;;;7.90;99.90;;;6.52;100.00;98303.94;5027124;28;20053;-71
2023/05/19 00:20:43;;;;;;;4.25;1.63;;;7.90;99.90;;;6.42;100.00;98309.25;5008706;28;20115;-70
2023/05/19 00:23:10;;;;;;;13.45;2.17;;;7.80;99.90;;;6.42;100.00;98303.25;5028226;28;20601;-70
2023/05/19 00:25:37;;;;;;;5.88;2.35;;;7.80;99.90;;;6.36;100.00;98303.31;5018611;28;20145;-71
2023/05/19 00:28:04;;;;;;;5.05;2.17;;;7.70;99.90;;;6.41;100.00;98314.41;5022768;28;20096;-70
2023/05/19 00:30:32;;;;;;;9.55;2.55;;;7.70;99.90;;;6.36;100.00;98311.06;5024534;28;20901;-70
2023/05/19 00:33:00;;;;;;;8.55;2.75;;;7.70;99.90;;;6.39;100.00;98311.88;5028370;28;20049;-71
2023/05/19 00:35:27;;;;;;;9.18;2.50;;;7.70;99.90;;;6.40;100.00;98313.56;5022890;28;20120;-70
2023/05/19 00:37:54;;;;;;;5.20;2.03;;;7.70;99.90;;;6.38;100.00;98306.72;5024749;28;20088;-71
2023/05/19 00:40:23;;;;;;;13.68;2.10;;;7.70;99.90;;;6.30;100.00;98303.44;5007117;28;20053;-70
2023/05/19 00:42:50;;;;;;;5.35;1.92;;;7.60;99.90;;;6.14;100.00;98308.78;5025708;28;20132;-70
2023/05/19 00:45:17;;;;;;;8.70;2.50;;;7.60;99.90;;;6.04;100.00;98300.31;5006756;28;20507;-71
2023/05/19 00:47:44;;;;;;;7.30;1.90;;;7.50;99.90;;;5.87;100.00;98300.47;5005430;28;20056;-70
2023/05/19 00:50:11;;;;;;;10.15;2.45;;;7.30;99.90;;;5.87;100.00;98303.06;5029622;28;21276;-71
2023/05/19 00:52:38;;;;;;;7.78;2.28;;;7.20;99.90;;;5.86;100.00;98298.78;5025780;28;20131;-70
2023/05/19 00:55:07;;;;;;;7.55;1.92;;;7.20;99.90;;;5.93;100.00;98299.56;5027559;28;20065;-70
2023/05/19 00:57:35;;;;;;;9.15;2.38;;;7.20;99.90;;;5.91;100.00;98301.31;5024982;28;20521;-70
2023/05/19 01:00:04;;;;;;;4.18;1.90;;;7.20;99.90;;;5.89;100.00;98290.16;5031289;28;20049;-70
2023/05/19 01:02:31;;;;;;;6.43;2.22;;;7.20;99.90;;;5.77;100.00;98296.34;5026023;28;20053;-70
2023/05/19 01:04:59;;;;;;;7.00;1.83;;;7.20;99.90;;;5.77;100.00;98291.19;5025264;28;20050;-70
2023/05/19 01:07:27;;;;;;;8.18;2.20;;;7.10;99.90;;;5.74;100.00;98286.03;5025099;28;20120;-70
2023/05/19 01:09:55;;;;;;;8.82;2.25;;;7.10;99.90;;;5.78;100.00;98289.44;5008724;28;20108;-70
2023/05/19 01:12:25;;;;;;;10.35;2.42;;;7.00;99.90;;;5.70;100.00;98289.50;5031567;28;20653;-70
2023/05/19 01:14:55;;;;;;;9.07;2.63;;;7.00;99.90;;;5.75;100.00;98286.91;5015442;28;20041;-70
2023/05/19 01:17:26;;;;;;;7.85;2.17;;;7.00;99.90;;;5.70;100.00;98286.94;5016525;28;20452;-70
2023/05/19 01:20:05;;;;;;;8.48;2.13;;;7.00;99.90;;;5.73;100.00;98294.66;5016748;28;20099;-70
2023/05/19 01:22:54;;;;;;;9.27;1.77;;;7.00;99.90;;;5.71;100.00;98291.25;5009374;28;20100;-70
2023/05/19 01:25:59;;;;;;;6.97;2.17;;;7.00;99.90;;;5.67;100.00;98297.28;5026363;28;20107;-70
2023/05/19 01:29:16;;;;;;;9.05;2.40;;;7.00;99.90;;;5.64;100.00;98307.63;5032939;28;20494;-70
2023/05/19 01:31:46;;;;;;;4.85;1.85;;;7.00;99.90;;;5.62;100.00;98310.22;5033870;28;20070;-70
2023/05/19 01:34:15;;;;;;;12.30;2.60;;;7.00;99.90;;;5.69;100.00;98299.84;4996316;28;20084;-70
2023/05/19 01:36:47;;;;;;;8.00;1.70;;;7.00;99.90;;;5.57;100.00;98303.44;5023816;28;20137;-70
2023/05/19 01:39:15;;;;;;;9.80;2.20;;;7.00;99.90;;;5.49;100.00;98308.66;5008325;28;20060;-70
2023/05/19 01:41:44;;;;;;;8.40;1.77;;;6.90;99.90;;;5.51;100.00;98311.22;5022006;28;20041;-70
2023/05/19 01:44:12;;;;;;;11.02;2.08;;;6.80;99.90;;;5.40;100.00;98307.00;5026068;28;20531;-70
2023/05/19 01:46:39;;;;;;;7.78;1.98;;;6.70;99.90;;;5.34;100.00;98308.81;5023079;28;20472;-70
2023/05/19 01:49:07;;;;;;;6.22;1.92;;;6.70;99.90;;;5.16;100.00;98307.28;5022833;28;20050;-70
2023/05/19 01:51:34;;;;;;;5.07;1.95;;;6.60;99.90;;;5.08;100.00;98309.06;5002234;28;20129;-71
2023/05/19 01:54:02;;;;;;;9.07;2.30;;;6.50;99.90;;;5.22;100.00;98309.75;5025753;28;20589;-71
2023/05/19 01:56:59;;;;;;;5.47;1.85;;;6.40;99.90;;;5.11;100.00;98306.44;5023956;28;20081;-71
2023/05/19 01:59:50;;;;;;;8.40;1.85;;;6.40;99.90;;;5.08;100.00;98314.19;5023462;28;20115;-71
2023/05/19 02:02:49;;;;;;;8.70;2.35;;;6.40;99.90;;;5.03;100.00;98322.81;5022681;28;20128;-71
2023/05/19 02:05:34;;;;;;;7.05;1.80;;;6.40;99.90;;;5.10;100.00;98321.03;5022657;28;20437;-71
2023/05/19 02:08:13;;;;;;;4.53;2.03;;;6.30;99.90;;;5.07;100.00;98322.78;5024436;28;20049;-71
2023/05/19 02:10:45;;;;;;;9.23;2.92;;;6.30;99.90;;;4.89;100.00;98324.63;5018067;28;20049;-71
2023/05/19 02:13:14;;;;;;;5.63;2.00;;;6.30;99.90;;;4.95;100.00;98326.28;5022704;28;20122;-71
2023/05/19 02:15:42;;;;;;;4.07;1.75;;;6.30;99.90;;;4.89;100.00;98329.78;5015730;28;20080;-70
2023/05/19 02:18:11;;;;;;;9.00;2.40;;;6.20;99.90;;;5.01;100.00;98329.69;5011627;28;20057;-71
2023/05/19 02:20:39;;;;;;;6.85;1.83;;;6.20;99.90;;;5.01;100.00;98329.69;5023939;28;20072;-70
2023/05/19 02:23:06;;;;;;;6.30;1.83;;;6.20;99.90;;;4.92;100.00;98322.03;5026059;28;20132;-71
2023/05/19 02:25:34;;;;;;;6.68;1.88;;;6.20;99.90;;;4.75;100.00;98321.34;5025132;28;20046;-71
2023/05/19 02:28:01;;;;;;;6.93;1.85;;;6.20;99.90;;;4.77;100.00;98324.75;5025402;28;20046;-70
2023/05/19 02:30:30;;;;;;;7.07;2.45;;;6.10;99.90;;;4.77;100.00;98320.44;5029945;28;20064;-71
2023/05/19 02:32:58;;;;;;;6.57;1.73;;;6.00;99.90;;;4.84;100.00;98326.41;5015039;28;20060;-70
2023/05/19 02:35:26;;;;;;;6.70;1.88;;;6.10;99.90;;;4.87;100.00;98322.94;5030029;28;20137;-72
2023/05/19 02:37:53;;;;;;;8.05;1.88;;;6.10;99.90;;;4.92;100.00;98326.34;5027640;28;20060;-71
2023/05/19 02:40:21;;;;;;;8.73;1.88;;;6.20;99.90;;;4.83;100.00;98322.09;5025147;28;20057;-71
2023/05/19 02:43:05;;;;;;;8.10;1.88;;;6.10;99.90;;;4.76;100.00;98317.88;5030837;28;20076;-70
2023/05/19 02:45:32;;;;;;;8.63;2.10;;;6.10;99.90;;;4.77;100.00;98317.03;5005900;28;20051;-71
2023/05/19 02:47:59;;;;;;;4.93;1.50;;;6.10;99.90;;;4.77;100.00;98317.88;5023245;28;20082;-70
2023/05/19 02:50:27;;;;;;;9.73;2.40;;;6.00;99.90;;;4.81;100.00;98317.00;5011616;28;20060;-71
2023/05/19 02:52:54;;;;;;;4.78;1.77;;;6.00;99.90;;;4.77;100.00;98320.44;5023616;28;20073;-71
2023/05/19 02:55:21;;;;;;;9.48;2.00;;;6.00;99.90;;;4.75;100.00;98317.03;5010585;28;20118;-71
2023/05/19 02:57:48;;;;;;;5.50;1.50;;;6.00;99.90;;;4.73;100.00;98318.75;5023476;28;20119;-70
2023/05/19 03:00:15;;;;;;;6.32;2.10;;;6.00;99.90;;;4.71;100.00;98317.91;5024799;28;20057;-70
2023/05/19 03:02:42;;;;;;;6.85;1.95;;;6.00;99.90;;;4.75;100.00;98311.03;5026668;28;20513;-70
2023/05/19 03:05:10;;;;;;;5.85;1.90;;;6.00;99.90;;;4.69;100.00;98311.94;5023650;28;20050;-71
2023/05/19 03:07:37;;;;;;;7.53;2.33;;;6.00;99.90;;;4.52;100.00;98311.22;5024884;28;20069;-71
2023/05/19 03:10:08;;;;;;;5.40;1.52;;;5.90;99.90;;;4.54;100.00;98312.91;5030840;28;20048;-71
2023/05/19 03:12:35;;;;;;;6.28;1.70;;;5.90;99.90;;;4.49;100.00;98316.34;5013704;28;20057;-71
2023/05/19 03:15:02;;;;;;;4.45;1.48;;;5.80;99.90;;;4.54;100.00;98319.78;5024206;28;20065;-71
2023/05/19 03:17:32;;;;;;;6.63;1.50;;;5.80;99.90;;;4.56;100.00;98320.59;5017742;28;20076;-71
2023/05/19 03:20:00;;;;;;;8.18;1.58;;;5.80;99.90;;;4.49;100.00;98319.75;5027361;28;20059;-71
2023/05/19 03:22:27;;;;;;;8.35;2.58;;;5.80;99.90;;;4.47;100.00;98325.78;5026559;28;20136;-71
2023/05/19 03:24:54;;;;;;;7.95;2.78;;;5.80;99.90;;;4.48;100.00;98320.66;5011353;28;20123;-71
2023/05/19 03:27:21;;;;;;;10.23;2.05;;;5.70;99.90;;;4.39;100.00;98328.41;5008033;28;20080;-71
2023/05/19 03:29:49;;;;;;;13.88;2.53;;;5.70;99.90;;;4.44;100.00;98325.81;5007564;28;20046;-70
2023/05/19 03:32:16;;;;;;;9.40;2.15;;;5.60;99.90;;;4.46;100.00;98332.66;5017914;28;20088;-70
2023/05/19 03:34:43;;;;;;;8.02;1.75;;;5.70;99.90;;;4.40;100.00;98324.97;5020351;28;20053;-71
2023/05/19 03:37:11;;;;;;;7.35;1.67;;;5.70;99.90;;;4.36;100.00;98333.59;5017297;28;20529;-71
2023/05/19 03:39:38;;;;;;;6.40;1.80;;;5.70;99.90;;;4.32;100.00;98329.31;5022580;28;20214;-71
2023/05/19 03:42:05;;;;;;;10.20;2.15;;;5.60;99.90;;;4.34;100.00;98323.31;5008840;28;20181;-70
2023/05/19 03:44:32;;;;;;;6.95;1.75;;;5.60;99.90;;;4.31;100.00;98336.19;5029284;28;20159;-70
2023/05/19 03:46:59;;;;;;;9.02;1.77;;;5.60;99.90;;;4.37;100.00;98325.84;5010343;28;20471;-70
2023/05/19 03:49:26;;;;;;;7.13;1.70;;;5.60;99.90;;;4.44;100.00;98336.94;5025885;28;20036;-70
2023/05/19 03:51:53;;;;;;;6.20;1.80;;;5.60;99.90;;;4.46;100.00;98336.94;5020301;28;20647;-70
2023/05/19 03:54:21;;;;;;;8.05;1.85;;;5.70;99.90;;;4.50;100.00;98336.91;5022979;28;20156;-70
2023/05/19 03:56:48;;;;;;;6.95;1.77;;;5.70;99.90;;;4.50;100.00;98342.06;5020057;28;20107;-70
2023/05/19 03:59:15;;;;;;;9.35;1.95;;;5.70;99.90;;;4.50;100.00;98339.50;5009308;28;20110;-70
2023/05/19 04:01:43;;;;;;;6.25;2.10;;;5.70;99.90;;;4.56;100.00;98333.44;5013531;28;20103;-71
2023/05/19 04:04:10;;;;;;;10.45;2.13;;;5.70;99.90;;;4.61;100.00;98337.69;4991760;28;20141;-70
2023/05/19 04:06:39;;;;;;;7.45;2.30;;;5.80;99.90;;;4.53;100.00;98336.88;5023891;28;20049;-70
2023/05/19 04:09:12;;;;;;;10.48;2.40;;;5.80;99.90;;;4.54;100.00;98345.47;5026686;28;20435;-70
2023/05/19 04:11:41;;;;;;;7.78;2.13;;;5.80;99.90;;;4.53;100.00;98339.47;5025069;28;20107;-71
2023/05/19 04:14:08;;;;;;;8.02;1.90;;;5.80;99.90;;;4.56;100.00;98343.72;5023779;28;20809;-70
2023/05/19 04:16:35;;;;;;;7.70;1.73;;;5.80;99.90;;;4.68;100.00;98341.09;5021940;28;20096;-70
2023/05/19 04:19:02;;;;;;;4.88;2.08;;;5.80;99.90;;;4.76;100.00;98347.00;5023381;28;20136;-70
2023/05/19 04:21:30;;;;;;;7.05;1.98;;;5.80;99.90;;;4.74;100.00;98345.31;5009996;28;20601;-70
2023/05/19 04:23:58;;;;;;;5.18;1.63;;;5.90;99.90;;;4.81;100.00;98344.41;4996416;28;20575;-70
2023/05/19 04:26:29;;;;;;;7.07;2.10;;;5.90;99.90;;;4.82;100.00;98339.25;5030464;28;20068;-70
2023/05/19 04:28:56;;;;;;;6.53;1.80;;;5.90;99.90;;;4.86;100.00;98344.38;5017257;28;20082;-70
2023/05/19 04:31:24;;;;;;;4.78;1.77;;;6.00;99.90;;;4.73;100.00;98344.47;5025982;28;20135;-69
2023/05/19 04:33:52;;;;;;;6.25;1.83;;;6.00;99.90;;;4.73;100.00;98347.03;5027722;28;20049;-70
2023/05/19 04:36:20;;;;;;;6.68;1.73;;;5.90;99.90;;;4.83;100.00;98347.81;5027042;28;20060;-70
2023/05/19 04:38:47;;;;;;;6.93;2.10;;;5.90;99.90;;;5.00;100.00;98352.88;5030006;28;20132;-70
2023/05/19 04:41:15;;;;;;;7.90;2.17;;;6.00;99.90;;;5.11;100.00;98345.03;5019349;28;20049;-70
2023/05/19 04:43:43;;;;;;;7.25;1.92;;;6.10;99.90;;;5.10;100.00;98349.34;5013195;28;20064;-70
2023/05/19 04:46:11;;;;;;;6.15;1.80;;;6.10;99.90;;;5.14;100.00;98351.03;5015074;28;20045;-70
2023/05/19 04:48:39;;;;;;;7.57;1.90;;;6.20;99.90;;;5.27;100.00;98346.63;5033508;28;20156;-70
2023/05/19 04:51:07;;;;;;;6.03;2.00;;;6.30;99.90;;;5.38;100.00;98355.13;5025917;28;20068;-70
2023/05/19 04:53:35;;;;;;;6.47;1.65;;;6.40;99.90;;;5.45;100.00;98354.19;5028716;28;20524;-70
2023/05/19 04:56:02;;;;;;;7.53;2.25;;;6.40;99.90;;;5.49;100.00;98346.41;5023265;28;20053;-70
2023/05/19 04:58:29;;;;;;;9.60;1.92;;;6.50;99.90;;;5.60;100.00;98352.31;5011147;28;20453;-70
2023/05/19 05:00:59;;;;;;;8.98;2.22;;;6.60;99.90;;;5.66;100.00;98350.53;5009543;28;20053;-70
2023/05/19 05:03:26;;;;;;;6.28;1.60;;;6.60;99.90;;;5.82;100.00;98350.38;5003172;28;20128;-70
2023/05/19 05:05:53;;;;;;;7.70;2.10;;;6.70;99.90;;;6.02;100.00;98347.56;5032074;28;20126;-70
2023/05/19 05:08:22;;;;;;;7.13;2.15;;;6.80;99.90;;;6.08;100.00;98342.34;5015221;28;20477;-70
2023/05/19 05:10:51;;;;;;;7.88;1.70;;;7.10;99.90;;;6.21;100.00;98333.59;4998293;28;20056;-70
2023/05/19 05:13:22;;;;;;;4.85;1.77;;;7.00;99.90;;;6.36;100.00;98335.09;5030990;28;20049;-70
2023/05/19 05:15:53;;;;;;;5.80;1.77;;;7.20;99.90;;;6.51;100.00;98328.06;5013145;28;20179;-70
2023/05/19 05:18:20;;;;;;;7.78;2.00;;;7.30;99.90;;;6.77;100.00;98322.50;5031489;28;20065;-70
2023/05/19 05:20:47;;;;;;;5.80;1.70;;;7.40;99.90;;;6.87;100.00;98317.19;5024413;28;20052;-70
2023/05/19 05:23:15;;;;;;;7.85;1.70;;;7.60;99.90;;;7.07;100.00;98313.41;5025549;28;20203;-71
2023/05/19 05:25:43;;;;;;;6.90;2.10;;;7.80;99.90;;;7.22;100.00;98302.81;5028301;28;20135;-70
2023/05/19 05:28:11;;;;;;;7.28;1.50;;;7.90;99.90;;;7.39;100.00;98286.16;5027532;28;20136;-71
2023/05/19 05:30:38;;;;;;;7.22;1.83;;;8.10;99.90;;;7.48;100.00;98276.53;5023848;28;20072;-71
2023/05/19 05:33:05;;;;;;;7.80;1.80;;;8.20;99.90;;;7.65;100.00;98268.44;5034366;28;20520;-70
2023/05/19 05:35:32;;;;;;;7.28;1.85;;;8.40;99.90;;;7.77;100.00;98261.34;5028560;28;20119;-70
2023/05/19 05:38:00;;;;;;;9.20;1.90;;;8.50;99.90;;;7.95;100.00;98254.03;5031552;28;20053;-70
2023/05/19 05:40:28;;;;;;;5.85;1.70;;;8.60;99.90;;;8.06;100.00;98248.66;5028559;28;20479;-70
2023/05/19 05:42:55;;;;;;;6.38;1.55;;;8.80;99.90;;;8.11;100.00;98240.78;5032043;28;20064;-70
2023/05/19 05:45:22;;;;;;;7.78;1.52;;;8.90;99.90;;;8.28;100.00;98228.34;5022625;28;20053;-70
2023/05/19 05:47:50;;;;;;;5.07;1.40;;;9.00;99.90;;;8.40;100.00;98232.41;5008184;28;20111;-70
2023/05/19 05:50:18;;;;;;;7.68;1.30;;;9.10;99.90;;;8.54;100.00;98227.75;5008416;28;20536;-72
2023/05/19 05:52:46;;;;;;;9.05;1.60;;;9.20;99.90;;;8.52;100.00;98219.16;5030209;28;20128;-71
2023/05/19 05:55:16;;;;;;;6.78;1.88;;;9.20;99.90;;;8.69;100.00;98216.19;5015481;28;20049;-71
2023/05/19 05:57:43;;;;;;;7.00;1.48;;;9.30;99.90;;;8.90;100.00;98214.78;5033613;28;20076;-71
2023/05/19 06:00:14;;;;;;;7.03;1.48;;;9.40;99.90;;;9.03;100.00;98220.47;5005982;28;20126;-71
2023/05/19 06:02:49;;;;;;;6.30;1.52;;;9.60;99.90;;;9.06;100.00;98212.66;5026291;28;20054;-71
2023/05/19 06:05:16;;;;;;;6.10;1.60;;;9.70;99.90;;;8.99;100.00;98205.94;5013305;28;20474;-71
2023/05/19 06:07:43;;;;;;;7.68;1.63;;;9.80;99.90;;;9.01;100.00;98209.34;5022850;28;20052;-71
2023/05/19 06:10:11;;;;;;;7.20;1.50;;;9.80;99.90;;;9.10;100.00;98203.03;5008960;28;20072;-71
2023/05/19 06:12:39;;;;;;;5.35;1.55;;;9.80;99.90;;;9.03;100.00;98210.13;5024073;28;20513;-71
2023/05/19 06:15:07;;;;;;;8.10;1.83;;;9.90;99.90;;;9.20;100.00;98207.09;5028990;28;20143;-71
2023/05/19 06:17:34;;;;;;;6.43;1.30;;;10.00;99.90;;;9.43;100.00;98206.47;5004508;28;20068;-71
2023/05/19 06:20:04;;;;;;;8.40;1.50;;;10.00;99.90;;;9.41;100.00;98197.88;5023100;28;20179;-71
2023/05/19 06:22:31;;;;;;;5.63;1.40;;;10.20;99.90;;;9.43;100.00;98196.09;5010155;28;20592;-74
2023/05/19 06:24:59;;;;;;;5.45;1.20;;;10.20;99.90;;;9.47;100.00;98189.09;5020390;28;20045;-76
2023/05/19 06:27:26;;;;;;;7.35;1.48;;;10.30;99.90;;;9.53;100.00;98186.31;5021203;28;20041;-75
2023/05/19 06:29:53;;;;;;;9.77;1.48;;;10.30;99.90;;;9.70;100.00;98189.28;5024564;28;20115;-75
2023/05/19 06:32:20;;;;;;;6.05;1.58;;;10.30;99.90;;;9.55;100.00;98194.91;5019993;28;20054;-74
2023/05/19 06:34:53;;;;;;;9.48;1.88;;;10.50;99.90;;;9.55;100.00;98194.91;5022224;28;20053;-74
2023/05/19 06:37:23;;;;;;;8.98;1.90;;;10.40;99.90;;;9.87;100.00;98198.31;5026651;28;20049;-78
2023/05/19 06:39:53;;;;;;;5.45;1.30;;;10.50;99.90;;;9.91;100.00;98192.97;5002861;28;20139;-74
2023/05/19 06:42:21;;;;;;;7.07;1.60;;;10.60;99.90;;;9.92;100.00;98189.50;5018480;28;20054;-74
2023/05/19 06:44:52;;;;;;;5.78;1.17;;;10.70;99.90;;;9.90;100.00;98190.44;5005651;28;20089;-74
2023/05/19 06:47:19;;;;;;;6.80;1.77;;;10.80;99.90;;;9.78;100.00;98189.94;5023917;28;20766;-76
2023/05/19 06:49:49;;;;;;;6.57;1.45;;;10.80;99.90;;;10.02;100.00;98192.66;5024009;28;20187;-74
2023/05/19 06:52:17;;;;;;;7.30;1.73;;;10.70;99.90;;;10.05;100.00;98188.22;5021316;28;20128;-76
2023/05/19 06:54:44;;;;;;;7.20;1.80;;;10.90;99.90;;;9.93;100.00;98195.53;5021671;28;20540;-75
2023/05/19 06:57:11;;;;;;;8.57;1.92;;;10.90;99.90;;;10.19;100.00;98187.78;5018592;28;20057;-75
2023/05/19 06:59:40;;;;;;;5.55;1.30;;;10.90;99.90;;;10.39;100.00;98182.00;5026005;28;20477;-74
2023/05/19 07:02:08;;;;;;;5.65;1.45;;;11.10;99.90;;;10.52;100.00;98192.00;5008088;28;20130;-75
2023/05/19 07:04:35;;;;;;;11.90;1.98;;;11.30;99.90;;;10.45;100.00;98181.81;5021233;28;20144;-75
2023/05/19 07:07:03;;;;;;;7.15;1.35;;;11.40;99.90;;;10.64;100.00;98184.66;5008087;28;20050;-79
2023/05/19 07:09:33;;;;;;;8.52;1.73;;;11.50;99.90;;;10.97;100.00;98181.84;5020997;28;20049;-75
2023/05/19 07:12:01;;;;;;;11.25;1.83;;;11.60;99.90;;;11.01;100.00;98183.41;5026455;28;20107;-74
2023/05/19 07:14:28;;;;;;;10.65;1.30;;;11.80;99.90;;;11.25;100.00;98181.69;5016168;28;20042;-75
2023/05/19 07:16:56;;;;;;;11.70;1.92;;;11.90;99.90;;;11.30;100.00;98179.78;5010377;28;20071;-76
2023/05/19 07:19:23;;;;;;;11.77;2.25;;;12.10;99.90;;;11.46;100.00;98172.28;5009484;28;20049;-75
2023/05/19 07:21:50;;;;;;;7.60;1.55;;;12.20;99.90;;;11.71;100.00;98173.97;5022588;28;20057;-75
2023/05/19 07:24:20;;;;;;;9.32;1.70;;;12.40;99.90;;;11.82;100.00;98174.41;5023374;28;20136;-75
2023/05/19 07:26:47;;;;;;;6.35;1.50;;;12.50;99.90;;;12.04;100.00;98171.88;5026475;28;20096;-76
2023/05/19 07:29:14;;;;;;;5.63;1.20;;;12.70;99.90;;;12.42;100.00;98174.69;5024105;28;20100;-76
2023/05/19 07:31:41;;;;;;;5.15;1.27;;;12.90;99.90;;;12.39;100.00;98169.63;4983544;28;20103;-75
2023/05/19 07:34:08;;;;;;;7.78;1.63;;;13.00;99.90;;;12.49;100.00;98167.47;5024287;28;20050;-76
2023/05/19 07:36:36;;;;;;;8.32;1.50;;;13.10;99.90;;;12.44;100.00;98161.63;5005974;28;20467;-75
2023/05/19 07:39:03;;;;;;;8.25;1.48;;;13.30;99.90;;;12.66;100.00;98161.59;4997228;28;20092;-75
2023/05/19 07:41:30;;;;;;;5.68;1.40;;;13.30;99.90;;;12.72;100.00;98162.16;5020373;28;20154;-74
2023/05/19 07:44:00;;;;;;;5.18;1.42;;;13.40;99.90;;;12.81;100.00;98160.94;5023539;28;20060;-74
2023/05/19 07:46:27;;;;;;;11.73;1.88;;;13.50;99.90;;;12.60;100.00;98167.06;5007296;28;20132;-75
2023/05/19 07:48:54;;;;;;;5.75;1.40;;;13.50;99.90;;;12.74;100.00;98167.31;5016517;28;20145;-76
2023/05/19 07:51:22;;;;;;;7.07;1.42;;;13.40;99.90;;;12.64;100.00;98166.03;5007510;28;20168;-75
2023/05/19 07:53:50;;;;;;;8.85;2.05;;;13.50;99.90;;;12.79;100.00;98160.16;5019032;28;20041;-75
2023/05/19 07:56:17;;;;;;;6.03;1.80;;;13.50;99.90;;;12.86;100.00;98158.13;5025499;28;20081;-77
2023/05/19 07:58:44;;;;;;;5.28;1.30;;;13.80;99.90;;;12.96;100.00;98156.84;5014405;28;20061;-75
2023/05/19 08:01:11;;;;;;;6.30;1.65;;;13.80;99.90;;;13.23;100.00;98156.53;5010546;28;20920;-76
2023/05/19 08:03:38;;;;;;;11.45;2.40;;;14.00;99.90;;;13.25;100.00;98139.06;4996572;28;20052;-75
2023/05/19 08:06:06;;;;;;;7.57;1.58;;;14.00;99.90;;;13.26;100.00;98139.00;5025604;28;20049;-75
2023/05/19 08:08:33;;;;;;;7.68;1.73;;;14.00;99.90;;;13.27;100.00;98132.88;5009362;28;20108;-75
2023/05/19 08:11:03;;;;;;;5.35;1.20;;;14.10;99.90;;;13.68;100.00;98143.22;5024172;28;20080;-76
2023/05/19 08:13:33;;;;;;;9.32;1.73;;;14.20;99.90;;;13.67;100.00;98144.16;5024382;28;20050;-75
2023/05/19 08:16:00;;;;;;;7.75;1.90;;;14.40;99.90;;;13.75;100.00;98139.44;5010012;28;20073;-75
2023/05/19 08:18:28;;;;;;;4.95;1.60;;;14.40;99.90;;;13.73;100.00;98138.66;5026060;28;20085;-77
2023/05/19 08:20:55;;;;;;;7.30;1.70;;;14.50;99.90;;;14.01;100.00;98132.97;5022194;28;20071;-76
2023/05/19 08:23:22;;;;;;;4.20;1.63;;;14.70;99.90;;;14.32;100.00;98136.72;4993409;28;20158;-76
2023/05/19 08:25:50;;;;;;;9.98;1.90;;;15.00;99.90;;;14.64;100.00;98122.09;5008629;28;20115;-76
2023/05/19 08:28:17;;;;;;;10.02;2.03;;;15.00;99.90;;;14.48;100.00;98126.34;5026106;28;20078;-75
2023/05/19 08:30:45;;;;;;;7.22;1.55;;;15.10;99.90;;;14.76;100.00;98125.03;5024721;28;20513;-76
2023/05/19 08:33:12;;;;;;;6.55;1.52;;;15.00;99.90;;;15.30;100.00;98120.44;5026235;28;20057;-76
2023/05/19 08:35:39;;;;;;;7.78;1.90;;;15.10;99.90;;;15.12;100.00;98124.03;5024142;28;20497;-75
2023/05/19 08:38:06;;;;;;;8.70;1.70;;;15.20;99.90;;;15.44;100.00;98117.09;5009461;28;20129;-76
2023/05/19 08:40:36;;;;;;;6.82;1.48;;;15.50;99.90;;;16.14;100.00;98103.69;5008636;28;20061;-76
2023/05/19 08:43:03;;;;;;;6.07;1.85;;;15.60;99.90;;;16.27;100.00;98104.69;5027074;28;20172;-77
2023/05/19 08:45:33;;;;;;;7.38;1.88;;;15.90;99.90;;;16.43;100.00;98109.91;5025374;28;20049;-76
2023/05/19 08:48:01;;;;;;;6.88;1.70;;;16.20;99.90;;;16.95;100.00;98099.00;5006876;28;20050;-76
2023/05/19 08:50:32;;;;;;;5.40;1.70;;;17.00;99.90;;;17.58;100.00;98097.72;5021397;28;20046;-76
2023/05/19 08:53:24;;;;;;;6.68;2.13;;;17.60;99.90;;;16.57;100.00;98103.84;5007779;28;20057;-77
2023/05/19 08:56:36;;;;;;;9.05;1.70;;;18.00;99.90;;;16.23;100.00;98103.19;5026831;28;20048;-78
2023/05/19 08:59:06;;;;;;;10.20;2.13;;;18.30;99.90;;;16.56;100.00;98092.53;4948144;28;20102;-74
2023/05/19 09:01:34;;;;;;;6.82;2.15;;;18.30;99.90;;;16.50;100.00;98090.25;4997535;28;20050;-74
2023/05/19 09:04:02;;;;;;;6.90;1.75;;;18.50;99.90;;;17.05;100.00;98083.53;5019273;28;20045;-75
2023/05/19 09:06:31;;;;;;;7.35;1.67;;;18.80;99.90;;;17.71;100.00;98082.06;5012165;28;20056;-75
2023/05/19 09:08:58;;;;;;;9.32;1.65;;;19.00;99.60;;;17.47;100.00;98074.81;5027038;28;20076;-76
2023/05/19 09:11:26;;;;;;;10.60;2.90;;;19.50;98.60;;;16.72;100.00;98079.38;5026103;28;20053;-74
2023/05/19 09:13:53;;;;;;;5.45;1.27;;;19.80;97.10;;;18.16;100.00;98075.66;5009925;28;20049;-75
2023/05/19 09:16:20;;;;;;;10.75;2.35;;;19.90;98.10;;;18.22;100.00;98074.41;5019353;28;20371;-76
2023/05/19 09:18:56;;;;;;;6.18;1.88;;;20.20;97.10;;;18.31;100.00;98071.16;5019181;28;20050;-78
2023/05/19 09:21:31;;;;;;;8.05;1.70;;;20.40;96.70;;;17.20;100.00;98066.88;5018899;28;20051;-76
2023/05/19 09:24:07;;;;;;;7.03;1.50;;;20.20;95.90;;;17.31;100.00;98064.44;5027312;28;20053;-74
2023/05/19 09:26:38;;;;;;;7.22;1.77;;;19.70;96.60;;;18.28;100.00;98075.78;5010693;28;20081;-76
2023/05/19 09:29:16;;;;;;;9.35;2.22;;;20.00;96.90;;;19.14;100.00;98057.69;4995445;28;20053;-75
2023/05/19 09:31:52;;;;;;;7.70;1.95;;;20.50;96.70;;;18.41;100.00;98063.53;5008717;28;20481;-78
2023/05/19 09:34:22;;;;;;;6.55;1.80;;;20.70;95.60;;;18.29;100.00;98059.06;5011685;28;20792;-76
2023/05/19 09:36:51;;;;;;;5.40;1.67;;;20.50;94.60;;;18.00;100.00;98061.84;5022254;28;20050;-74
2023/05/19 09:39:21;;;;;;;6.60;1.55;;;20.10;95.40;;;18.20;100.00;98068.44;5009078;28;20048;-75
2023/05/19 09:41:53;;;;;;;5.97;1.63;;;20.20;95.40;;;18.72;100.00;98058.81;5008843;28;20129;-75
2023/05/19 09:44:30;;;;;;;7.13;2.05;;;20.10;94.80;;;18.07;100.00;98059.66;5027446;28;20053;-76
2023/05/19 09:46:57;;;;;;;11.88;1.92;;;20.10;94.80;;;18.36;100.00;98061.22;5025874;28;20042;-76
2023/05/19 09:49:30;;;;;;;7.43;2.28;;;20.10;94.60;;;18.37;100.00;98062.03;5016086;28;20052;-75
2023/05/19 09:52:04;;;;;;;7.45;1.70;;;20.20;93.80;;;17.27;100.00;98065.53;5001701;28;20053;-75
2023/05/19 09:54:33;;;;;;;6.00;1.60;;;19.70;93.50;;;18.06;100.00;98044.81;5026934;28;20056;-76
2023/05/19 09:57:03;;;;;;;7.70;1.60;;;19.60;93.90;;;18.56;100.00;98043.25;5012486;28;20505;-76
2023/05/19 09:59:34;;;;;;;6.05;1.75;;;19.90;94.30;;;19.66;100.00;98034.72;5016822;28;20049;-76
2023/05/19 10:02:09;;;;;;;6.15;1.55;;;20.10;94.30;;;18.90;100.00;98039.19;5027113;28;20149;-76
2023/05/19 10:04:37;;;;;;;6.25;1.63;;;20.70;92.50;;;19.59;100.00;98052.75;5014848;28;20112;-76
2023/05/19 10:07:06;;;;;;;3.50;1.20;;;20.80;92.70;;;19.87;100.00;98045.53;5029706;28;20547;-77
2023/05/19 10:09:35;;;;;;;6.43;1.30;;;21.00;91.70;;;19.80;100.00;98047.75;5032133;28;20129;-76
2023/05/19 10:12:03;;;;;;;5.07;1.70;;;21.00;92.20;;;18.80;100.00;98060.00;5024960;28;20163;-76
2023/05/19 10:14:33;;;;;;;5.10;1.63;;;20.50;91.70;;;19.92;100.00;98045.19;5022523;28;20233;-77
2023/05/19 10:17:00;;;;;;;5.07;1.27;;;20.60;91.50;;;19.05;100.00;98026.75;5000069;28;20053;-78
2023/05/19 10:19:28;;;;;;;6.90;1.20;;;20.90;90.80;;;19.14;100.00;98048.97;5011122;28;20085;-76
2023/05/19 10:21:56;;;;;;;6.63;1.50;;;20.50;91.10;;;20.41;100.00;98033.59;5029257;28;20057;-76
2023/05/19 10:24:26;;;;;;;6.85;1.17;;;20.50;91.50;;;20.34;100.00;98035.03;5001027;28;20092;-76
2023/05/19 10:27:00;;;;;;;;;;;20.70;90.90;;;19.98;97.16;98035.03;5026185;28;20099;-77
2023/05/19 10:29:32;;;;;;;5.35;1.27;;;20.90;90.20;;;20.03;98.79;98034.69;5015617;28;19921;-78